sensor_id;sensor_type;location;lat;lon;timestamp;P1;durP1;ratioP1;P2;durP2;ratioP2
71562;SDS011;59391;52.504;13.438;2022-09-29T00:00:50;9.90;;;6.00;;
71562;SDS011;59391;52.504;13.438;2022-09-29T00:03:18;11.10;;;6.03;;
71562;SDS011;59391;52.504;13.438;2022-09-29T00:05:46;8.82;;;5.93;;
71562;SDS011;59391;52.504;13.438;2022-09-29T00:08:14;11.80;;;6.90;;
71562;SDS011;59391;52.504;13.438;2022-09-29T00:10:40;10.40;;;6.70;;
71562;SDS011;59391;52.504;13.438;2022-09-29T00:13:06;12.17;;;6.70;;
71562;SDS011;59391;52.504;13.438;2022-09-29T00:15:32;11.70;;;6.63;;
71562;SDS011;59391;52.504;13.438;2022-09-29T00:17:57;10.67;;;6.80;;
71562;SDS011;59391;52.504;13.438;2022-09-29T00:20:23;10.60;;;6.63;;
71562;SDS011;59391;52.504;13.438;2022-09-29T00:22:49;10.20;;;6.37;;
71562;SDS011;59391;52.504;13.438;2022-09-29T00:25:16;9.48;;;6.60;;
71562;SDS011;59391;52.504;13.438;2022-09-29T00:27:43;10.68;;;6.35;;
71562;SDS011;59391;52.504;13.438;2022-09-29T00:30:09;10.60;;;6.35;;
71562;SDS011;59391;52.504;13.438;2022-09-29T00:32:35;10.10;;;5.97;;
71562;SDS011;59391;52.504;13.438;2022-09-29T00:35:01;10.90;;;7.00;;
71562;SDS011;59391;52.504;13.438;2022-09-29T00:37:27;12.63;;;7.45;;
71562;SDS011;59391;52.504;13.438;2022-09-29T00:39:53;12.80;;;7.20;;
71562;SDS011;59391;52.504;13.438;2022-09-29T00:42:19;12.03;;;7.57;;
71562;SDS011;59391;52.504;13.438;2022-09-29T00:44:54;11.75;;;7.00;;
71562;SDS011;59391;52.504;13.438;2022-09-29T00:48:01;12.10;;;7.13;;
71562;SDS011;59391;52.504;13.438;2022-09-29T00:50:40;12.10;;;7.15;;
71562;SDS011;59391;52.504;13.438;2022-09-29T00:53:12;12.52;;;6.97;;
71562;SDS011;59391;52.504;13.438;2022-09-29T00:55:46;13.13;;;6.67;;
71562;SDS011;59391;52.504;13.438;2022-09-29T00:58:24;14.13;;;7.13;;
71562;SDS011;59391;52.504;13.438;2022-09-29T01:01:07;11.52;;;7.00;;
71562;SDS011;59391;52.504;13.438;2022-09-29T01:03:36;12.60;;;7.05;;
71562;SDS011;59391;52.504;13.438;2022-09-29T01:06:09;12.05;;;6.70;;
71562;SDS011;59391;52.504;13.438;2022-09-29T01:08:59;14.27;;;7.13;;
71562;SDS011;59391;52.504;13.438;2022-09-29T01:11:29;15.63;;;8.15;;
71562;SDS011;59391;52.504;13.438;2022-09-29T01:13:55;12.02;;;7.03;;
71562;SDS011;59391;52.504;13.438;2022-09-29T01:16:28;13.20;;;7.40;;
71562;SDS011;59391;52.504;13.438;2022-09-29T01:18:58;12.18;;;7.35;;
71562;SDS011;59391;52.504;13.438;2022-09-29T01:21:33;11.30;;;6.37;;
71562;SDS011;59391;52.504;13.438;2022-09-29T01:24:27;11.73;;;7.40;;
71562;SDS011;59391;52.504;13.438;2022-09-29T01:27:59;15.52;;;8.27;;
71562;SDS011;59391;52.504;13.438;2022-09-29T01:33:53;11.82;;;7.13;;
71562;SDS011;59391;52.504;13.438;2022-09-29T01:42:29;11.90;;;6.70;;
71562;SDS011;59391;52.504;13.438;2022-09-29T01:45:07;11.38;;;7.13;;
71562;SDS011;59391;52.504;13.438;2022-09-29T01:47:43;10.73;;;6.63;;
71562;SDS011;59391;52.504;13.438;2022-09-29T01:50:17;10.57;;;6.43;;
71562;SDS011;59391;52.504;13.438;2022-09-29T01:52:53;11.60;;;7.32;;
71562;SDS011;59391;52.504;13.438;2022-09-29T01:55:29;12.05;;;7.45;;
71562;SDS011;59391;52.504;13.438;2022-09-29T01:58:00;10.48;;;6.75;;
71562;SDS011;59391;52.504;13.438;2022-09-29T02:00:36;11.95;;;6.63;;
71562;SDS011;59391;52.504;13.438;2022-09-29T02:05:49;9.70;;;5.63;;
71562;SDS011;59391;52.504;13.438;2022-09-29T02:08:30;11.35;;;6.80;;
71562;SDS011;59391;52.504;13.438;2022-09-29T02:11:05;11.95;;;6.82;;
71562;SDS011;59391;52.504;13.438;2022-09-29T02:13:36;11.95;;;7.65;;
71562;SDS011;59391;52.504;13.438;2022-09-29T02:16:10;12.73;;;7.50;;
71562;SDS011;59391;52.504;13.438;2022-09-29T02:19:23;11.10;;;6.30;;
71562;SDS011;59391;52.504;13.438;2022-09-29T02:21:34;12.55;;;7.72;;
71562;SDS011;59391;52.504;13.438;2022-09-29T02:24:00;10.80;;;7.07;;
71562;SDS011;59391;52.504;13.438;2022-09-29T02:26:27;11.83;;;6.80;;
71562;SDS011;59391;52.504;13.438;2022-09-29T02:29:03;12.57;;;6.93;;
71562;SDS011;59391;52.504;13.438;2022-09-29T02:31:31;14.35;;;6.88;;
71562;SDS011;59391;52.504;13.438;2022-09-29T02:33:58;13.55;;;8.00;;
71562;SDS011;59391;52.504;13.438;2022-09-29T02:42:35;10.70;;;7.10;;
71562;SDS011;59391;52.504;13.438;2022-09-29T02:45:20;11.55;;;6.72;;
71562;SDS011;59391;52.504;13.438;2022-09-29T02:51:22;14.20;;;7.73;;
71562;SDS011;59391;52.504;13.438;2022-09-29T02:54:12;15.00;;;7.43;;
71562;SDS011;59391;52.504;13.438;2022-09-29T02:57:21;13.85;;;8.00;;
71562;SDS011;59391;52.504;13.438;2022-09-29T03:00:02;15.65;;;7.82;;
71562;SDS011;59391;52.504;13.438;2022-09-29T03:02:37;15.55;;;8.68;;
71562;SDS011;59391;52.504;13.438;2022-09-29T03:05:07;13.67;;;7.73;;
71562;SDS011;59391;52.504;13.438;2022-09-29T03:07:36;14.82;;;8.48;;
71562;SDS011;59391;52.504;13.438;2022-09-29T03:10:03;15.15;;;8.20;;
71562;SDS011;59391;52.504;13.438;2022-09-29T03:12:32;14.32;;;8.48;;
71562;SDS011;59391;52.504;13.438;2022-09-29T03:14:58;16.88;;;9.15;;
71562;SDS011;59391;52.504;13.438;2022-09-29T03:17:24;16.47;;;8.73;;
71562;SDS011;59391;52.504;13.438;2022-09-29T03:19:50;14.95;;;8.40;;
71562;SDS011;59391;52.504;13.438;2022-09-29T03:22:15;14.83;;;8.40;;
71562;SDS011;59391;52.504;13.438;2022-09-29T03:24:42;14.90;;;8.20;;
71562;SDS011;59391;52.504;13.438;2022-09-29T03:27:08;15.73;;;8.40;;
71562;SDS011;59391;52.504;13.438;2022-09-29T03:29:34;14.40;;;8.40;;
71562;SDS011;59391;52.504;13.438;2022-09-29T03:32:01;12.93;;;7.82;;
71562;SDS011;59391;52.504;13.438;2022-09-29T03:34:29;17.23;;;9.25;;
71562;SDS011;59391;52.504;13.438;2022-09-29T03:36:55;14.63;;;9.40;;
71562;SDS011;59391;52.504;13.438;2022-09-29T03:39:22;17.30;;;8.65;;
71562;SDS011;59391;52.504;13.438;2022-09-29T03:41:49;16.23;;;9.48;;
71562;SDS011;59391;52.504;13.438;2022-09-29T03:44:15;15.00;;;8.30;;
71562;SDS011;59391;52.504;13.438;2022-09-29T03:46:41;15.87;;;9.20;;
71562;SDS011;59391;52.504;13.438;2022-09-29T03:49:08;16.70;;;9.25;;
71562;SDS011;59391;52.504;13.438;2022-09-29T03:51:35;15.45;;;9.40;;
71562;SDS011;59391;52.504;13.438;2022-09-29T03:54:02;17.35;;;9.55;;
71562;SDS011;59391;52.504;13.438;2022-09-29T03:56:28;15.17;;;9.37;;
71562;SDS011;59391;52.504;13.438;2022-09-29T03:58:53;15.90;;;9.60;;
71562;SDS011;59391;52.504;13.438;2022-09-29T04:01:19;17.10;;;9.37;;
71562;SDS011;59391;52.504;13.438;2022-09-29T04:03:45;15.93;;;9.18;;
71562;SDS011;59391;52.504;13.438;2022-09-29T04:06:10;17.60;;;10.03;;
71562;SDS011;59391;52.504;13.438;2022-09-29T04:08:36;16.65;;;9.70;;
71562;SDS011;59391;52.504;13.438;2022-09-29T04:11:02;15.67;;;9.40;;
71562;SDS011;59391;52.504;13.438;2022-09-29T04:13:29;15.20;;;8.80;;
71562;SDS011;59391;52.504;13.438;2022-09-29T04:15:58;17.42;;;9.60;;
71562;SDS011;59391;52.504;13.438;2022-09-29T04:18:26;17.23;;;9.65;;
71562;SDS011;59391;52.504;13.438;2022-09-29T04:20:52;14.93;;;8.50;;
71562;SDS011;59391;52.504;13.438;2022-09-29T04:23:27;16.90;;;9.18;;
71562;SDS011;59391;52.504;13.438;2022-09-29T04:25:57;14.73;;;9.00;;
71562;SDS011;59391;52.504;13.438;2022-09-29T04:28:25;16.48;;;9.35;;
71562;SDS011;59391;52.504;13.438;2022-09-29T04:30:50;15.83;;;9.53;;
71562;SDS011;59391;52.504;13.438;2022-09-29T04:33:16;13.88;;;7.70;;
71562;SDS011;59391;52.504;13.438;2022-09-29T04:35:42;15.63;;;9.32;;
71562;SDS011;59391;52.504;13.438;2022-09-29T04:38:08;14.97;;;9.20;;
71562;SDS011;59391;52.504;13.438;2022-09-29T04:40:34;16.27;;;9.55;;
71562;SDS011;59391;52.504;13.438;2022-09-29T04:43:01;15.75;;;9.20;;
71562;SDS011;59391;52.504;13.438;2022-09-29T04:45:28;16.85;;;9.93;;
71562;SDS011;59391;52.504;13.438;2022-09-29T04:47:54;16.90;;;9.45;;
71562;SDS011;59391;52.504;13.438;2022-09-29T04:50:22;16.10;;;8.68;;
71562;SDS011;59391;52.504;13.438;2022-09-29T04:52:49;16.30;;;9.75;;
71562;SDS011;59391;52.504;13.438;2022-09-29T04:55:15;15.93;;;9.20;;
71562;SDS011;59391;52.504;13.438;2022-09-29T04:57:41;18.95;;;10.32;;
71562;SDS011;59391;52.504;13.438;2022-09-29T05:00:08;16.25;;;9.02;;
71562;SDS011;59391;52.504;13.438;2022-09-29T05:02:35;17.58;;;10.05;;
71562;SDS011;59391;52.504;13.438;2022-09-29T05:05:02;17.48;;;9.70;;
71562;SDS011;59391;52.504;13.438;2022-09-29T05:07:30;19.63;;;10.43;;
71562;SDS011;59391;52.504;13.438;2022-09-29T05:09:58;17.20;;;8.50;;
71562;SDS011;59391;52.504;13.438;2022-09-29T05:12:23;17.65;;;9.85;;
71562;SDS011;59391;52.504;13.438;2022-09-29T05:14:49;17.30;;;9.57;;
71562;SDS011;59391;52.504;13.438;2022-09-29T05:17:14;15.60;;;9.07;;
71562;SDS011;59391;52.504;13.438;2022-09-29T05:19:40;19.65;;;10.63;;
71562;SDS011;59391;52.504;13.438;2022-09-29T05:22:09;15.93;;;9.53;;
71562;SDS011;59391;52.504;13.438;2022-09-29T05:24:34;17.83;;;9.02;;
71562;SDS011;59391;52.504;13.438;2022-09-29T05:27:00;17.63;;;10.07;;
71562;SDS011;59391;52.504;13.438;2022-09-29T05:29:28;16.70;;;9.55;;
71562;SDS011;59391;52.504;13.438;2022-09-29T05:31:57;18.90;;;10.50;;
71562;SDS011;59391;52.504;13.438;2022-09-29T05:34:22;16.58;;;9.65;;
71562;SDS011;59391;52.504;13.438;2022-09-29T05:36:48;14.82;;;9.07;;
71562;SDS011;59391;52.504;13.438;2022-09-29T05:39:14;16.50;;;9.70;;
71562;SDS011;59391;52.504;13.438;2022-09-29T05:41:41;22.38;;;11.48;;
71562;SDS011;59391;52.504;13.438;2022-09-29T05:44:07;24.60;;;12.80;;
71562;SDS011;59391;52.504;13.438;2022-09-29T05:46:32;26.75;;;11.90;;
71562;SDS011;59391;52.504;13.438;2022-09-29T05:48:59;19.63;;;10.57;;
71562;SDS011;59391;52.504;13.438;2022-09-29T05:51:25;20.15;;;10.77;;
71562;SDS011;59391;52.504;13.438;2022-09-29T05:53:52;18.88;;;9.95;;
71562;SDS011;59391;52.504;13.438;2022-09-29T05:56:19;17.98;;;9.93;;
71562;SDS011;59391;52.504;13.438;2022-09-29T05:58:49;16.75;;;9.10;;
71562;SDS011;59391;52.504;13.438;2022-09-29T06:01:24;17.58;;;9.88;;
71562;SDS011;59391;52.504;13.438;2022-09-29T06:03:54;18.30;;;10.43;;
71562;SDS011;59391;52.504;13.438;2022-09-29T06:06:21;17.35;;;9.75;;
71562;SDS011;59391;52.504;13.438;2022-09-29T06:08:51;16.20;;;9.13;;
71562;SDS011;59391;52.504;13.438;2022-09-29T06:11:18;17.33;;;10.13;;
71562;SDS011;59391;52.504;13.438;2022-09-29T06:13:49;17.08;;;9.80;;
71562;SDS011;59391;52.504;13.438;2022-09-29T06:16:18;17.13;;;9.38;;
71562;SDS011;59391;52.504;13.438;2022-09-29T06:18:53;16.90;;;9.73;;
71562;SDS011;59391;52.504;13.438;2022-09-29T06:21:29;17.83;;;10.25;;
71562;SDS011;59391;52.504;13.438;2022-09-29T06:23:56;17.88;;;9.70;;
71562;SDS011;59391;52.504;13.438;2022-09-29T06:26:23;21.17;;;10.55;;
71562;SDS011;59391;52.504;13.438;2022-09-29T06:28:51;20.13;;;11.25;;
71562;SDS011;59391;52.504;13.438;2022-09-29T06:31:19;22.98;;;11.63;;
71562;SDS011;59391;52.504;13.438;2022-09-29T06:33:47;18.10;;;10.13;;
71562;SDS011;59391;52.504;13.438;2022-09-29T06:36:17;20.75;;;10.93;;
71562;SDS011;59391;52.504;13.438;2022-09-29T06:39:08;18.70;;;10.73;;
71562;SDS011;59391;52.504;13.438;2022-09-29T06:41:39;19.30;;;10.35;;
71562;SDS011;59391;52.504;13.438;2022-09-29T06:44:05;17.90;;;10.73;;
71562;SDS011;59391;52.504;13.438;2022-09-29T06:46:31;23.27;;;11.02;;
71562;SDS011;59391;52.504;13.438;2022-09-29T06:48:59;28.52;;;11.55;;
71562;SDS011;59391;52.504;13.438;2022-09-29T06:51:25;22.03;;;11.10;;
71562;SDS011;59391;52.504;13.438;2022-09-29T06:53:51;18.25;;;10.57;;
71562;SDS011;59391;52.504;13.438;2022-09-29T06:56:18;19.58;;;10.82;;
71562;SDS011;59391;52.504;13.438;2022-09-29T06:58:44;20.67;;;11.30;;
71562;SDS011;59391;52.504;13.438;2022-09-29T07:01:11;23.27;;;12.43;;
71562;SDS011;59391;52.504;13.438;2022-09-29T07:03:37;21.10;;;11.57;;
71562;SDS011;59391;52.504;13.438;2022-09-29T07:06:07;20.05;;;11.27;;
71562;SDS011;59391;52.504;13.438;2022-09-29T07:08:34;19.00;;;10.30;;
71562;SDS011;59391;52.504;13.438;2022-09-29T07:11:03;20.75;;;10.38;;
71562;SDS011;59391;52.504;13.438;2022-09-29T07:13:30;19.88;;;10.27;;
71562;SDS011;59391;52.504;13.438;2022-09-29T07:16:02;17.27;;;10.57;;
71562;SDS011;59391;52.504;13.438;2022-09-29T07:18:36;23.70;;;11.68;;
71562;SDS011;59391;52.504;13.438;2022-09-29T07:21:05;20.65;;;11.85;;
71562;SDS011;59391;52.504;13.438;2022-09-29T07:23:35;22.15;;;11.98;;
71562;SDS011;59391;52.504;13.438;2022-09-29T07:26:02;24.13;;;12.88;;
71562;SDS011;59391;52.504;13.438;2022-09-29T07:28:30;21.60;;;11.88;;
71562;SDS011;59391;52.504;13.438;2022-09-29T07:31:00;24.08;;;12.15;;
71562;SDS011;59391;52.504;13.438;2022-09-29T07:33:29;21.45;;;12.48;;
71562;SDS011;59391;52.504;13.438;2022-09-29T07:35:56;23.83;;;12.10;;
71562;SDS011;59391;52.504;13.438;2022-09-29T07:38:29;25.85;;;13.73;;
71562;SDS011;59391;52.504;13.438;2022-09-29T07:40:59;21.70;;;12.10;;
71562;SDS011;59391;52.504;13.438;2022-09-29T07:43:32;25.80;;;13.10;;
71562;SDS011;59391;52.504;13.438;2022-09-29T07:45:58;26.55;;;15.90;;
71562;SDS011;59391;52.504;13.438;2022-09-29T07:48:24;28.75;;;16.20;;
71562;SDS011;59391;52.504;13.438;2022-09-29T07:50:51;27.35;;;14.45;;
71562;SDS011;59391;52.504;13.438;2022-09-29T07:53:25;34.25;;;18.80;;
71562;SDS011;59391;52.504;13.438;2022-09-29T07:55:51;31.38;;;18.35;;
71562;SDS011;59391;52.504;13.438;2022-09-29T07:58:17;30.00;;;16.70;;
71562;SDS011;59391;52.504;13.438;2022-09-29T08:00:42;25.38;;;12.63;;
71562;SDS011;59391;52.504;13.438;2022-09-29T08:03:08;26.73;;;12.43;;
71562;SDS011;59391;52.504;13.438;2022-09-29T08:05:34;27.10;;;14.93;;
71562;SDS011;59391;52.504;13.438;2022-09-29T08:08:01;22.73;;;11.97;;
71562;SDS011;59391;52.504;13.438;2022-09-29T08:10:29;24.17;;;12.88;;
71562;SDS011;59391;52.504;13.438;2022-09-29T08:12:56;25.48;;;13.93;;
71562;SDS011;59391;52.504;13.438;2022-09-29T08:15:23;22.45;;;11.75;;
71562;SDS011;59391;52.504;13.438;2022-09-29T08:17:53;23.92;;;13.55;;
71562;SDS011;59391;52.504;13.438;2022-09-29T08:20:20;23.08;;;12.32;;
71562;SDS011;59391;52.504;13.438;2022-09-29T08:22:50;24.50;;;13.02;;
71562;SDS011;59391;52.504;13.438;2022-09-29T08:25:17;22.50;;;12.65;;
71562;SDS011;59391;52.504;13.438;2022-09-29T08:27:43;23.67;;;12.57;;
71562;SDS011;59391;52.504;13.438;2022-09-29T08:30:10;22.92;;;12.63;;
71562;SDS011;59391;52.504;13.438;2022-09-29T08:32:36;24.65;;;13.23;;
71562;SDS011;59391;52.504;13.438;2022-09-29T08:35:02;23.52;;;13.20;;
71562;SDS011;59391;52.504;13.438;2022-09-29T08:37:29;27.70;;;14.13;;
71562;SDS011;59391;52.504;13.438;2022-09-29T08:39:55;23.03;;;12.50;;
71562;SDS011;59391;52.504;13.438;2022-09-29T08:42:24;24.38;;;13.20;;
71562;SDS011;59391;52.504;13.438;2022-09-29T08:45:22;28.25;;;14.90;;
71562;SDS011;59391;52.504;13.438;2022-09-29T08:47:55;24.27;;;13.75;;
71562;SDS011;59391;52.504;13.438;2022-09-29T08:50:56;24.08;;;13.55;;
71562;SDS011;59391;52.504;13.438;2022-09-29T08:53:36;23.70;;;13.95;;
71562;SDS011;59391;52.504;13.438;2022-09-29T08:56:12;26.00;;;14.45;;
71562;SDS011;59391;52.504;13.438;2022-09-29T08:58:41;24.77;;;13.85;;
71562;SDS011;59391;52.504;13.438;2022-09-29T09:01:20;22.23;;;12.98;;
71562;SDS011;59391;52.504;13.438;2022-09-29T09:04:27;22.85;;;12.40;;
71562;SDS011;59391;52.504;13.438;2022-09-29T09:07:18;27.08;;;14.27;;
71562;SDS011;59391;52.504;13.438;2022-09-29T09:10:17;22.83;;;11.80;;
71562;SDS011;59391;52.504;13.438;2022-09-29T09:13:19;25.10;;;13.55;;
71562;SDS011;59391;52.504;13.438;2022-09-29T09:16:19;22.50;;;13.23;;
71562;SDS011;59391;52.504;13.438;2022-09-29T09:22:23;21.77;;;11.85;;
71562;SDS011;59391;52.504;13.438;2022-09-29T09:28:20;22.20;;;12.55;;
71562;SDS011;59391;52.504;13.438;2022-09-29T09:31:09;22.02;;;12.27;;
71562;SDS011;59391;52.504;13.438;2022-09-29T09:39:20;21.42;;;12.52;;
71562;SDS011;59391;52.504;13.438;2022-09-29T09:41:59;17.60;;;9.95;;
71562;SDS011;59391;52.504;13.438;2022-09-29T09:44:37;15.75;;;9.60;;
71562;SDS011;59391;52.504;13.438;2022-09-29T09:50:07;15.80;;;9.40;;
71562;SDS011;59391;52.504;13.438;2022-09-29T09:52:47;18.92;;;10.90;;
71562;SDS011;59391;52.504;13.438;2022-09-29T09:55:24;16.15;;;9.52;;
71562;SDS011;59391;52.504;13.438;2022-09-29T10:00:27;17.50;;;10.95;;
71562;SDS011;59391;52.504;13.438;2022-09-29T10:03:03;16.27;;;9.43;;
71562;SDS011;59391;52.504;13.438;2022-09-29T10:05:33;18.30;;;10.13;;
71562;SDS011;59391;52.504;13.438;2022-09-29T10:08:08;14.52;;;8.57;;
71562;SDS011;59391;52.504;13.438;2022-09-29T10:10:39;15.30;;;9.80;;
71562;SDS011;59391;52.504;13.438;2022-09-29T10:13:08;16.73;;;9.20;;
71562;SDS011;59391;52.504;13.438;2022-09-29T10:15:46;14.25;;;9.43;;
71562;SDS011;59391;52.504;13.438;2022-09-29T10:18:20;15.35;;;9.40;;
71562;SDS011;59391;52.504;13.438;2022-09-29T10:20:53;14.88;;;9.13;;
71562;SDS011;59391;52.504;13.438;2022-09-29T10:28:43;15.48;;;9.32;;
71562;SDS011;59391;52.504;13.438;2022-09-29T10:31:33;16.67;;;10.30;;
71562;SDS011;59391;52.504;13.438;2022-09-29T10:34:12;14.15;;;8.85;;
71562;SDS011;59391;52.504;13.438;2022-09-29T10:36:49;13.10;;;8.35;;
71562;SDS011;59391;52.504;13.438;2022-09-29T10:39:37;13.13;;;7.88;;
71562;SDS011;59391;52.504;13.438;2022-09-29T10:42:23;12.65;;;7.95;;
71562;SDS011;59391;52.504;13.438;2022-09-29T10:45:00;18.80;;;11.32;;
71562;SDS011;59391;52.504;13.438;2022-09-29T10:47:37;13.07;;;8.73;;
71562;SDS011;59391;52.504;13.438;2022-09-29T10:50:21;11.50;;;7.10;;
71562;SDS011;59391;52.504;13.438;2022-09-29T10:53:32;12.05;;;7.47;;
71562;SDS011;59391;52.504;13.438;2022-09-29T10:56:17;12.93;;;8.10;;
71562;SDS011;59391;52.504;13.438;2022-09-29T10:58:53;12.55;;;7.85;;
71562;SDS011;59391;52.504;13.438;2022-09-29T11:01:23;13.18;;;8.27;;
71562;SDS011;59391;52.504;13.438;2022-09-29T11:03:54;31.25;;;20.20;;
71562;SDS011;59391;52.504;13.438;2022-09-29T11:06:30;24.40;;;15.05;;
71562;SDS011;59391;52.504;13.438;2022-09-29T11:09:06;13.02;;;8.45;;
71562;SDS011;59391;52.504;13.438;2022-09-29T11:12:00;11.80;;;7.13;;
71562;SDS011;59391;52.504;13.438;2022-09-29T11:20:02;10.85;;;6.93;;
71562;SDS011;59391;52.504;13.438;2022-09-29T11:22:44;10.65;;;6.65;;
71562;SDS011;59391;52.504;13.438;2022-09-29T11:31:24;13.38;;;9.23;;
71562;SDS011;59391;52.504;13.438;2022-09-29T11:36:37;12.15;;;7.78;;
71562;SDS011;59391;52.504;13.438;2022-09-29T11:39:27;10.93;;;7.72;;
71562;SDS011;59391;52.504;13.438;2022-09-29T11:42:38;13.02;;;8.52;;
71562;SDS011;59391;52.504;13.438;2022-09-29T11:45:31;10.60;;;7.70;;
71562;SDS011;59391;52.504;13.438;2022-09-29T11:48:18;22.42;;;15.52;;
71562;SDS011;59391;52.504;13.438;2022-09-29T11:51:07;12.07;;;8.35;;
71562;SDS011;59391;52.504;13.438;2022-09-29T11:54:01;14.90;;;9.38;;
71562;SDS011;59391;52.504;13.438;2022-09-29T11:56:53;29.20;;;18.50;;
71562;SDS011;59391;52.504;13.438;2022-09-29T11:59:39;20.95;;;10.60;;
71562;SDS011;59391;52.504;13.438;2022-09-29T12:11:43;18.98;;;11.35;;
71562;SDS011;59391;52.504;13.438;2022-09-29T12:18:01;15.35;;;10.20;;
71562;SDS011;59391;52.504;13.438;2022-09-29T12:20:41;16.23;;;9.00;;
71562;SDS011;59391;52.504;13.438;2022-09-29T12:23:14;12.98;;;7.75;;
71562;SDS011;59391;52.504;13.438;2022-09-29T12:28:39;13.75;;;7.25;;
71562;SDS011;59391;52.504;13.438;2022-09-29T12:34:07;36.47;;;22.42;;
71562;SDS011;59391;52.504;13.438;2022-09-29T12:36:56;13.70;;;8.65;;
71562;SDS011;59391;52.504;13.438;2022-09-29T12:43:03;11.05;;;7.32;;
71562;SDS011;59391;52.504;13.438;2022-09-29T12:48:51;12.70;;;9.40;;
71562;SDS011;59391;52.504;13.438;2022-09-29T12:56:57;13.43;;;7.90;;
71562;SDS011;59391;52.504;13.438;2022-09-29T12:59:40;10.32;;;7.28;;
71562;SDS011;59391;52.504;13.438;2022-09-29T13:05:15;12.05;;;7.82;;
71562;SDS011;59391;52.504;13.438;2022-09-29T13:17:11;9.35;;;5.70;;
71562;SDS011;59391;52.504;13.438;2022-09-29T13:28:48;8.02;;;5.80;;
71562;SDS011;59391;52.504;13.438;2022-09-29T13:31:20;6.75;;;4.40;;
71562;SDS011;59391;52.504;13.438;2022-09-29T13:33:52;7.78;;;4.32;;
71562;SDS011;59391;52.504;13.438;2022-09-29T13:36:25;6.15;;;4.00;;
71562;SDS011;59391;52.504;13.438;2022-09-29T13:38:59;6.22;;;4.00;;
71562;SDS011;59391;52.504;13.438;2022-09-29T13:51:47;5.32;;;3.50;;
71562;SDS011;59391;52.504;13.438;2022-09-29T13:54:37;8.93;;;4.40;;
71562;SDS011;59391;52.504;13.438;2022-09-29T14:04:58;6.85;;;4.22;;
71562;SDS011;59391;52.504;13.438;2022-09-29T14:15:39;6.18;;;4.13;;
71562;SDS011;59391;52.504;13.438;2022-09-29T14:18:16;6.00;;;3.40;;
71562;SDS011;59391;52.504;13.438;2022-09-29T14:21:43;8.05;;;4.25;;
71562;SDS011;59391;52.504;13.438;2022-09-29T14:29:59;9.50;;;5.68;;
71562;SDS011;59391;52.504;13.438;2022-09-29T14:33:12;9.15;;;5.47;;
71562;SDS011;59391;52.504;13.438;2022-09-29T14:38:19;23.80;;;7.55;;
71562;SDS011;59391;52.504;13.438;2022-09-29T14:49:56;20.13;;;8.13;;
71562;SDS011;59391;52.504;13.438;2022-09-29T14:53:01;12.27;;;6.30;;
71562;SDS011;59391;52.504;13.438;2022-09-29T15:04:51;20.02;;;8.98;;
71562;SDS011;59391;52.504;13.438;2022-09-29T15:07:21;32.30;;;12.38;;
71562;SDS011;59391;52.504;13.438;2022-09-29T15:09:53;21.75;;;9.88;;
71562;SDS011;59391;52.504;13.438;2022-09-29T15:12:27;13.43;;;8.57;;
71562;SDS011;59391;52.504;13.438;2022-09-29T15:14:56;18.60;;;8.50;;
71562;SDS011;59391;52.504;13.438;2022-09-29T15:17:41;12.45;;;6.43;;
71562;SDS011;59391;52.504;13.438;2022-09-29T15:20:22;14.40;;;10.80;;
71562;SDS011;59391;52.504;13.438;2022-09-29T15:26:32;9.70;;;5.07;;
71562;SDS011;59391;52.504;13.438;2022-09-29T15:28:59;5.10;;;3.40;;
71562;SDS011;59391;52.504;13.438;2022-09-29T15:31:31;5.45;;;3.47;;
71562;SDS011;59391;52.504;13.438;2022-09-29T15:33:58;6.40;;;4.22;;
71562;SDS011;59391;52.504;13.438;2022-09-29T15:36:32;7.15;;;4.57;;
71562;SDS011;59391;52.504;13.438;2022-09-29T15:39:06;6.20;;;4.32;;
71562;SDS011;59391;52.504;13.438;2022-09-29T15:42:11;6.57;;;4.30;;
71562;SDS011;59391;52.504;13.438;2022-09-29T15:44:48;5.88;;;3.70;;
71562;SDS011;59391;52.504;13.438;2022-09-29T15:47:34;6.85;;;4.38;;
71562;SDS011;59391;52.504;13.438;2022-09-29T15:50:16;8.63;;;6.40;;
71562;SDS011;59391;52.504;13.438;2022-09-29T15:52:48;13.70;;;5.35;;
71562;SDS011;59391;52.504;13.438;2022-09-29T15:55:16;8.30;;;5.45;;
71562;SDS011;59391;52.504;13.438;2022-09-29T15:57:49;7.47;;;5.13;;
71562;SDS011;59391;52.504;13.438;2022-09-29T16:05:34;9.25;;;6.05;;
71562;SDS011;59391;52.504;13.438;2022-09-29T16:08:22;6.13;;;4.68;;
71562;SDS011;59391;52.504;13.438;2022-09-29T16:10:51;7.03;;;4.00;;
71562;SDS011;59391;52.504;13.438;2022-09-29T16:13:24;6.77;;;4.17;;
71562;SDS011;59391;52.504;13.438;2022-09-29T16:15:55;5.90;;;3.53;;
71562;SDS011;59391;52.504;13.438;2022-09-29T16:18:41;7.60;;;4.53;;
71562;SDS011;59391;52.504;13.438;2022-09-29T16:21:15;8.57;;;5.80;;
71562;SDS011;59391;52.504;13.438;2022-09-29T16:26:39;7.33;;;4.40;;
71562;SDS011;59391;52.504;13.438;2022-09-29T16:32:32;8.77;;;5.38;;
71562;SDS011;59391;52.504;13.438;2022-09-29T16:38:09;8.35;;;5.13;;
71562;SDS011;59391;52.504;13.438;2022-09-29T16:40:47;8.43;;;4.87;;
71562;SDS011;59391;52.504;13.438;2022-09-29T16:43:19;8.65;;;5.32;;
71562;SDS011;59391;52.504;13.438;2022-09-29T16:45:55;7.45;;;4.47;;
71562;SDS011;59391;52.504;13.438;2022-09-29T16:48:26;7.97;;;4.65;;
71562;SDS011;59391;52.504;13.438;2022-09-29T16:50:55;8.07;;;5.28;;
71562;SDS011;59391;52.504;13.438;2022-09-29T16:53:31;7.93;;;4.90;;
71562;SDS011;59391;52.504;13.438;2022-09-29T16:59:12;8.32;;;5.55;;
71562;SDS011;59391;52.504;13.438;2022-09-29T17:01:42;10.57;;;5.38;;
71562;SDS011;59391;52.504;13.438;2022-09-29T17:04:12;8.95;;;6.20;;
71562;SDS011;59391;52.504;13.438;2022-09-29T17:06:40;25.47;;;16.20;;
71562;SDS011;59391;52.504;13.438;2022-09-29T17:09:14;13.55;;;7.85;;
71562;SDS011;59391;52.504;13.438;2022-09-29T17:11:44;13.77;;;8.32;;
71562;SDS011;59391;52.504;13.438;2022-09-29T17:14:13;14.65;;;7.60;;
71562;SDS011;59391;52.504;13.438;2022-09-29T17:19:10;23.87;;;11.60;;
71562;SDS011;59391;52.504;13.438;2022-09-29T17:21:36;14.30;;;8.25;;
71562;SDS011;59391;52.504;13.438;2022-09-29T17:24:02;15.85;;;10.07;;
71562;SDS011;59391;52.504;13.438;2022-09-29T17:26:36;12.73;;;8.48;;
71562;SDS011;59391;52.504;13.438;2022-09-29T17:29:27;15.30;;;9.95;;
71562;SDS011;59391;52.504;13.438;2022-09-29T17:31:53;18.38;;;9.52;;
71562;SDS011;59391;52.504;13.438;2022-09-29T17:34:26;15.48;;;9.30;;
71562;SDS011;59391;52.504;13.438;2022-09-29T17:36:54;14.38;;;9.90;;
71562;SDS011;59391;52.504;13.438;2022-09-29T17:39:26;15.10;;;9.70;;
71562;SDS011;59391;52.504;13.438;2022-09-29T17:41:52;14.18;;;9.27;;
71562;SDS011;59391;52.504;13.438;2022-09-29T17:44:18;12.43;;;8.88;;
71562;SDS011;59391;52.504;13.438;2022-09-29T17:46:44;18.17;;;12.25;;
71562;SDS011;59391;52.504;13.438;2022-09-29T17:49:13;13.35;;;8.55;;
71562;SDS011;59391;52.504;13.438;2022-09-29T17:51:42;14.93;;;9.60;;
71562;SDS011;59391;52.504;13.438;2022-09-29T17:54:10;14.95;;;9.23;;
71562;SDS011;59391;52.504;13.438;2022-09-29T17:56:39;16.58;;;11.57;;
71562;SDS011;59391;52.504;13.438;2022-09-29T17:59:09;13.68;;;10.50;;
71562;SDS011;59391;52.504;13.438;2022-09-29T18:01:41;17.00;;;10.23;;